MDT,Max TemperatureF,Mean TemperatureF,Min TemperatureF,Max Dew PointF,MeanDew PointF,Min DewpointF,Max Humidity, Mean Humidity, Min Humidity, Max Sea Level PressureIn, Mean Sea Level PressureIn, Min Sea Level PressureIn, Max VisibilityMiles, Mean VisibilityMiles, Min VisibilityMiles, Max Wind SpeedMPH, Mean Wind SpeedMPH, Max Gust SpeedMPH,PrecipitationIn, CloudCover, Events, WindDirDegrees
2013-3-1,54,39,23,18,13,8,60,40,19,30.35,30.28,30.22,10,10,10,22,10,29,0.00,6,,319
2013-3-2,66,47,28,20,17,14,58,37,16,30.34,30.19,30.00,10,10,10,22,8,24,0.00,0,,275
2013-3-3,74,54,34,21,16,7,48,28,8,29.98,29.68,29.52,10,10,10,30,10,36,0.00,0,,270
2013-3-4,51,35,19,27,24,11,92,63,34,30.28,29.94,29.55,10,7,0,38,14,46,0.02,5,Fog-Snow,11
2013-3-5,48,29,9,24,16,5,81,60,38,30.48,30.32,30.20,10,10,10,16,9,22,0.00,0,,176
2013-3-6,64,43,21,27,21,16,81,50,18,30.18,29.95,29.78,10,8,0,18,6,21,0.00,0,,148
2013-3-7,74,51,27,27,20,8,78,43,8,29.91,29.82,29.76,10,10,10,20,9,24,0.00,0,,327
2013-3-8,65,46,27,35,28,20,75,49,22,29.86,29.70,29.49,10,9,2,20,9,24,0.00,1,,173
2013-3-9,51,41,30,34,30,22,92,71,50,30.06,29.73,29.45,10,5,0,32,18,40,0.18,6,Fog-Rain-Snow,348
2013-3-10,41,31,21,24,19,15,81,59,37,30.17,30.13,30.08,10,10,10,38,16,45,T,1,,334
2013-3-11,56,39,22,31,24,17,81,54,26,30.13,30.00,29.86,10,10,10,26,10,32,0.00,0,,221
2013-3-12,46,39,32,30,26,21,82,62,42,30.35,30.25,30.12,10,10,7,14,6,15,0.00,5,,15
2013-3-13,67,47,27,32,27,22,92,55,18,30.27,30.22,30.15,10,10,10,14,7,16,0.00,0,,231
2013-3-14,73,54,34,31,26,21,70,43,15,30.24,30.14,30.02,10,10,10,16,9,18,0.00,0,,217
2013-3-15,83,61,39,30,22,9,57,32,6,29.99,29.83,29.70,10,10,10,22,13,25,0.00,0,,262
2013-3-16,57,48,38,31,26,21,64,47,30,29.98,29.86,29.71,10,10,10,22,8,25,0.00,2,,102
2013-3-17,70,49,28,31,22,9,78,44,10,29.83,29.64,29.40,10,9,2,38,13,46,0.00,2,,354
2013-3-18,57,43,28,15,10,5,53,34,14,29.96,29.87,29.78,10,10,10,22,8,28,0.00,0,,126
2013-3-19,54,40,25,14,7,2,47,30,13,30.27,30.08,29.89,10,10,10,22,7,26,0.00,0,,29
2013-3-20,57,38,19,20,16,11,68,45,22,30.33,30.06,29.71,10,10,10,16,5,18,0.00,0,,353
2013-3-21,64,47,29,36,23,15,89,55,20,29.80,29.60,29.44,10,10,10,33,11,39,0.00,2,,34
2013-3-22,58,44,29,32,26,20,100,62,24,29.88,29.72,29.52,10,10,10,29,11,37,0.00,4,,65
2013-3-23,36,27,17,31,23,13,92,83,73,30.27,29.94,29.62,10,4,0,44,22,52,0.04,8,Fog-Rain-Snow,20
2013-3-24,35,22,9,20,12,4,80,62,43,30.32,30.24,30.14,10,10,10,17,8,20,0.00,2,,328
2013-3-25,41,28,15,16,13,7,84,55,25,30.38,30.34,30.27,10,10,10,14,4,18,0.00,2,,37
2013-3-26,60,38,15,24,17,11,80,52,23,30.33,30.08,29.85,10,10,10,20,8,23,0.00,0,,80
2013-3-27,63,47,30,28,24,22,69,45,21,30.09,30.00,29.91,10,10,10,21,10,24,0.00,0,,73
2013-3-28,69,50,31,31,27,22,78,48,18,30.10,30.03,29.95,10,10,10,13,5,20,0.00,0,,91
2013-3-29,75,55,34,34,30,22,82,48,14,30.08,29.99,29.88,10,10,9,17,6,22,0.00,0,,14
2013-3-30,73,56,38,39,30,23,70,43,16,30.08,29.97,29.84,10,10,5,41,11,51,T,2,,20
2013-3-31,74,55,36,38,27,11,85,48,10,30.11,29.95,29.78,10,10,10,17,7,21,T,0,,120